KLCK/LCK METAR and TAF weather

Enter ICAO airport designator
Station Type Date Time Source
KLCK METAR 2019/12/08 18:55 UTC NOAA

KLCK 081855Z AUTO 18010KT 10SM OVC055 09/02 A3009 RMK AO2 T00910023


Station Type Date Time Source
KLCK Decoded METAR 2019/12/08 18:55 UTC NOAA

Rickenbacker Air National Guard Base, OH, United States (KLCK) 39-49N 082-56W
Dec 08, 2019 - 01:55 PM EST / 2019.12.08 1855 UTC
Wind: from the S (180 degrees) at 12 MPH (10 KT):0
Visibility: 10 mile(s):0
Sky conditions: overcast
Temperature: 48.4 F (9.1 C)
Dew Point: 36.1 F (2.3 C)
Relative Humidity: 62%
Pressure (altimeter): 30.09 in. Hg (1018 hPa)
ob: KLCK 081855Z AUTO 18010KT 10SM OVC055 09/02 A3009 RMK AO2 T00910023
cycle: 19

Station Type Date Time Source
KLCK TAF 2019/12/08 18:45 UTC NOAA

TAF KLCK 081740Z 0818/0918 18010KT P6SM OVC050
FM090900 17010KT 6SM -RA OVC025
FM091000 17010KT 5SM -RA OVC015
FM091400 17012KT 3SM -RA BR OVC009
FM091600 18012KT 3SM -RA BR OVC008 WS020/21055KT

Example: see airport list